PABE/BET METAR and TAF weather

Enter ICAO airport designator
Station Type Date Time Source
PABE METAR 2021/09/27 06:53 UTC NOAA

PABE 270653Z 00000KT 10SM BKN041 02/00 A2990 RMK AO2 SLP128 T00170000


Station Type Date Time Source
PABE Decoded METAR 2021/09/27 06:53 UTC NOAA

BETHEL AIRPORT, AK, United States (PABE) 60-47N 161-50W 46M
Sep 27, 2021 - 02:53 AM EDT / 2021.09.27 0653 UTC
Wind: Calm:0
Visibility: 10 mile(s):0
Sky conditions: mostly cloudy
Temperature: 35.1 F (1.7 C)
Dew Point: 32.0 F (0.0 C)
Relative Humidity: 88%
Pressure (altimeter): 29.9 in. Hg (1012 hPa)
ob: PABE 270653Z 00000KT 10SM BKN041 02/00 A2990 RMK AO2 SLP128 T00170000
cycle: 7

Station Type Date Time Source
PABE TAF 2021/09/27 06:42 UTC NOAA

TAF PABE 270539Z 2706/2806 29004KT P6SM SCT040
FM271800 03011KT P6SM BKN050
FM280000 02012G22KT P6SM BKN050
FM280400 02012KT P6SM BKN050

Example: see airport list